createdAt,value
2018-09-23T00:00:58.452Z,43.97
2018-09-23T00:03:28.372Z,65.40
2018-09-23T00:05:57.533Z,44.30
2018-09-23T00:08:27.373Z,57.13
2018-09-23T00:10:56.462Z,62.33
2018-09-23T00:13:25.493Z,45.33
2018-09-23T00:15:54.436Z,52.30
2018-09-23T00:18:23.676Z,57.63
2018-09-23T00:20:52.469Z,51.07
2018-09-23T00:23:21.523Z,74.43
2018-09-23T00:25:50.512Z,51.77
2018-09-23T00:28:19.598Z,47.00
2018-09-23T00:30:48.628Z,65.57
2018-09-23T00:33:17.557Z,58.40
2018-09-23T00:35:47.450Z,51.23
2018-09-23T00:38:16.618Z,54.93
2018-09-23T00:40:45.713Z,45.23
2018-09-23T00:43:17.497Z,46.60
2018-09-23T00:45:46.529Z,48.40
2018-09-23T00:48:15.575Z,51.60
2018-09-23T00:50:47.269Z,57.40
2018-09-23T00:53:16.326Z,51.33
2018-09-23T00:55:45.329Z,54.97
2018-09-23T00:58:14.295Z,39.70
2018-09-23T01:00:43.223Z,41.03
2018-09-23T01:03:12.243Z,51.80
2018-09-23T01:05:41.076Z,55.43
2018-09-23T01:08:10.017Z,47.60
2018-09-23T01:10:38.956Z,46.17
2018-09-23T01:13:07.915Z,46.10
2018-09-23T01:15:37.808Z,45.60
2018-09-23T01:18:07.125Z,42.87
2018-09-23T01:20:36.079Z,39.23
2018-09-23T01:23:04.970Z,48.93
2018-09-23T01:25:33.949Z,54.03
2018-09-23T01:28:02.814Z,40.87
2018-09-23T01:30:31.753Z,40.77
2018-09-23T01:33:00.646Z,35.90
2018-09-23T01:35:29.579Z,36.37
2018-09-23T01:37:58.779Z,38.93
2018-09-23T01:40:27.727Z,36.53
2018-09-23T01:42:56.560Z,37.70
2018-09-23T01:45:25.474Z,40.23
2018-09-23T01:47:54.343Z,31.93
2018-09-23T01:50:23.249Z,40.53
2018-09-23T01:52:52.125Z,42.43
2018-09-23T01:55:20.962Z,36.37
2018-09-23T01:57:49.940Z,44.33
2018-09-23T02:00:18.884Z,46.10
2018-09-23T02:02:47.763Z,38.70
2018-09-23T02:05:16.675Z,35.00
2018-09-23T02:07:45.538Z,41.97
2018-09-23T02:10:14.486Z,42.97
2018-09-23T02:12:43.438Z,32.63
2018-09-23T02:15:12.271Z,40.20
2018-09-23T02:17:41.251Z,33.67
2018-09-23T02:20:10.091Z,35.10
2018-09-23T02:22:39.077Z,26.30
2018-09-23T02:25:08.061Z,30.43
2018-09-23T02:27:37.007Z,37.20
2018-09-23T02:30:06.500Z,37.27
2018-09-23T02:32:35.462Z,22.50
2018-09-23T02:35:04.484Z,28.80
2018-09-23T02:37:33.461Z,30.17
2018-09-23T02:40:02.322Z,44.70
2018-09-23T02:42:31.287Z,31.50
2018-09-23T02:45:00.321Z,31.30
2018-09-23T02:47:31.197Z,48.40
2018-09-23T02:50:00.136Z,26.27
2018-09-23T02:52:29.060Z,31.90
2018-09-23T02:54:57.901Z,29.20
2018-09-23T02:57:26.837Z,26.87
2018-09-23T02:59:55.640Z,41.40
2018-09-23T03:02:24.497Z,22.70
2018-09-23T03:04:53.477Z,28.90
2018-09-23T03:07:22.276Z,24.07
2018-09-23T03:09:51.265Z,42.13
2018-09-23T03:12:20.043Z,25.67
2018-09-23T03:14:49.019Z,28.03
2018-09-23T03:17:17.960Z,28.67
2018-09-23T03:19:46.953Z,29.77
2018-09-23T03:22:15.932Z,21.07
2018-09-23T03:24:44.972Z,24.10
2018-09-23T03:27:13.948Z,25.20
2018-09-23T03:29:42.921Z,27.97
2018-09-23T03:32:11.828Z,20.10
2018-09-23T03:34:40.792Z,25.87
2018-09-23T03:37:09.769Z,20.87
2018-09-23T03:39:38.704Z,20.80
2018-09-23T03:42:07.749Z,26.80
2018-09-23T03:44:36.688Z,21.70
2018-09-23T03:47:05.623Z,24.53
2018-09-23T03:49:34.552Z,22.27
2018-09-23T03:52:03.363Z,32.43
2018-09-23T03:54:32.385Z,21.67
2018-09-23T03:57:01.378Z,28.90
2018-09-23T03:59:30.425Z,26.73
2018-09-23T04:01:59.268Z,31.80
2018-09-23T04:04:28.169Z,24.30
2018-09-23T04:06:57.082Z,26.80
2018-09-23T04:09:26.090Z,22.30
2018-09-23T04:11:54.953Z,30.33
2018-09-23T04:14:23.969Z,23.60
2018-09-23T04:16:52.988Z,24.43
2018-09-23T04:19:21.975Z,24.63
2018-09-23T04:21:50.940Z,24.13
2018-09-23T04:24:19.917Z,21.50
2018-09-23T04:26:48.849Z,28.93
2018-09-23T04:29:17.841Z,23.40
2018-09-23T04:31:46.867Z,20.73
2018-09-23T04:34:15.852Z,26.07
2018-09-23T04:36:44.762Z,23.63
2018-09-23T04:39:13.859Z,26.47
2018-09-23T04:41:42.845Z,20.47
2018-09-23T04:44:11.885Z,35.63
2018-09-23T04:46:40.704Z,28.67
2018-09-23T04:49:09.728Z,31.20
2018-09-23T04:51:38.753Z,33.63
2018-09-23T04:54:07.750Z,31.70
2018-09-23T04:56:36.542Z,29.97
2018-09-23T04:59:05.588Z,32.40
2018-09-23T05:01:34.686Z,36.00
2018-09-23T05:04:03.888Z,25.83
2018-09-23T05:06:32.894Z,25.80
2018-09-23T05:09:01.948Z,28.57
2018-09-23T05:11:30.939Z,30.40
2018-09-23T05:13:59.953Z,28.73
2018-09-23T05:16:28.855Z,34.90
2018-09-23T05:18:57.853Z,29.00
2018-09-23T05:21:26.953Z,45.40
2018-09-23T05:23:56.048Z,32.43
2018-09-23T05:26:24.978Z,41.93
2018-09-23T05:28:53.897Z,36.73
2018-09-23T05:31:22.868Z,25.43
2018-09-23T05:33:51.699Z,28.87
2018-09-23T05:36:20.584Z,29.33
2018-09-23T05:38:49.444Z,42.67
2018-09-23T05:41:18.466Z,30.40
2018-09-23T05:43:47.534Z,66.17
2018-09-23T05:46:16.482Z,27.63
2018-09-23T05:48:45.437Z,29.63
2018-09-23T05:51:14.439Z,28.37
2018-09-23T05:53:43.436Z,29.77
2018-09-23T05:56:12.479Z,33.40
2018-09-23T05:58:41.887Z,34.27
2018-09-23T06:01:10.983Z,36.40
2018-09-23T06:03:39.843Z,32.00
2018-09-23T06:06:08.889Z,30.17
2018-09-23T06:08:37.942Z,39.13
2018-09-23T06:11:06.978Z,31.30
2018-09-23T06:13:35.949Z,29.40
2018-09-23T06:16:05.135Z,37.90
2018-09-23T06:18:34.394Z,38.07
2018-09-23T06:21:03.505Z,38.13
2018-09-23T06:23:32.523Z,27.10
2018-09-23T06:26:01.585Z,24.13
2018-09-23T06:28:31.568Z,27.70
2018-09-23T06:31:00.705Z,29.73
2018-09-23T06:33:29.627Z,31.73
2018-09-23T06:35:58.718Z,25.37
2018-09-23T06:38:28.694Z,28.00
2018-09-23T06:40:57.709Z,29.33
2018-09-23T06:43:26.649Z,28.93
2018-09-23T06:45:55.734Z,29.47
2018-09-23T06:48:24.727Z,26.00
2018-09-23T06:50:53.691Z,30.17
2018-09-23T06:53:22.700Z,25.43
2018-09-23T06:55:51.694Z,24.90
2018-09-23T06:58:20.709Z,24.90
2018-09-23T07:00:49.944Z,21.50
2018-09-23T07:03:18.924Z,26.03
2018-09-23T07:05:47.951Z,21.73
2018-09-23T07:08:16.964Z,31.13
2018-09-23T07:10:45.956Z,25.97
2018-09-23T07:13:15.101Z,28.37
2018-09-23T07:15:44.189Z,22.60
2018-09-23T07:18:13.235Z,21.90
2018-09-23T07:20:42.209Z,27.60
2018-09-23T07:23:11.175Z,26.47
2018-09-23T07:25:40.104Z,23.70
2018-09-23T07:28:09.096Z,24.67
2018-09-23T07:30:38.351Z,19.40
2018-09-23T07:33:07.457Z,25.50
2018-09-23T07:35:36.541Z,26.03
2018-09-23T07:38:05.545Z,21.40
2018-09-23T07:40:34.596Z,19.23
2018-09-23T07:43:03.603Z,27.00
2018-09-23T07:45:32.622Z,25.40
2018-09-23T07:48:01.749Z,20.63
2018-09-23T07:50:30.762Z,24.60
2018-09-23T07:52:59.768Z,33.07
2018-09-23T07:55:28.612Z,18.33
2018-09-23T07:57:57.671Z,26.67
2018-09-23T08:00:26.661Z,19.13
2018-09-23T08:02:55.622Z,20.23
2018-09-23T08:05:24.547Z,23.23
2018-09-23T08:07:53.385Z,25.87
2018-09-23T08:10:22.487Z,22.30
2018-09-23T08:12:51.566Z,17.27
2018-09-23T08:15:20.698Z,25.77
2018-09-23T08:17:49.781Z,21.50
2018-09-23T08:20:19.035Z,23.60
2018-09-23T08:22:47.840Z,19.80
2018-09-23T08:25:16.758Z,24.30
2018-09-23T08:27:45.901Z,24.03
2018-09-23T08:30:14.882Z,19.70
2018-09-23T08:32:43.941Z,17.03
2018-09-23T08:35:12.983Z,21.17
2018-09-23T08:37:41.964Z,17.17
2018-09-23T08:40:10.952Z,24.27
2018-09-23T08:42:39.903Z,16.53
2018-09-23T08:45:08.922Z,16.10
2018-09-23T08:47:37.850Z,15.00
2018-09-23T08:50:06.957Z,16.97
2018-09-23T08:52:35.992Z,14.30
2018-09-23T08:55:05.111Z,15.87
2018-09-23T08:57:34.099Z,16.90
2018-09-23T09:00:03.004Z,19.63
2018-09-23T09:02:31.960Z,17.17
2018-09-23T09:05:00.958Z,18.87
2018-09-23T09:07:30.018Z,16.10
2018-09-23T09:09:58.892Z,28.40
2018-09-23T09:12:27.875Z,16.67
2018-09-23T09:14:56.792Z,18.47
2018-09-23T09:17:25.701Z,18.97
2018-09-23T09:19:54.753Z,20.13
2018-09-23T09:22:23.840Z,16.93
2018-09-23T09:24:52.914Z,21.60
2018-09-23T09:27:21.926Z,19.03
2018-09-23T09:29:50.871Z,20.13
2018-09-23T09:32:19.889Z,17.00
2018-09-23T09:34:48.846Z,21.63
2018-09-23T09:37:17.856Z,17.60
2018-09-23T09:39:46.858Z,23.80
2018-09-23T09:42:15.798Z,24.47
2018-09-23T09:44:44.848Z,37.00
2018-09-23T09:47:13.753Z,24.03
2018-09-23T09:49:42.756Z,24.73
2018-09-23T09:52:11.806Z,20.93
2018-09-23T09:54:40.688Z,23.57
2018-09-23T09:57:09.666Z,21.13
2018-09-23T09:59:38.701Z,21.90
2018-09-23T10:02:07.739Z,19.77
2018-09-23T10:04:36.661Z,18.63
2018-09-23T10:07:05.700Z,27.67
2018-09-23T10:09:34.646Z,26.43
2018-09-23T10:12:03.699Z,23.27
2018-09-23T10:14:32.755Z,21.63
2018-09-23T10:17:01.784Z,24.27
2018-09-23T10:19:30.775Z,20.53
2018-09-23T10:21:59.765Z,27.93
2018-09-23T10:24:28.818Z,13.70
2018-09-23T10:26:57.819Z,16.90
2018-09-23T10:29:26.856Z,13.87
2018-09-23T10:31:55.888Z,11.60
2018-09-23T10:34:24.952Z,17.33
2018-09-23T10:36:54.123Z,15.60
2018-09-23T10:39:23.097Z,15.83
2018-09-23T10:41:52.128Z,23.63
2018-09-23T10:44:21.077Z,18.03
2018-09-23T10:46:50.043Z,28.97
2018-09-23T10:49:19.167Z,20.33
2018-09-23T10:51:48.056Z,22.00
2018-09-23T10:54:17.057Z,20.87
2018-09-23T10:56:45.988Z,36.97
2018-09-23T10:59:15.040Z,38.93
2018-09-23T11:01:44.067Z,31.37
2018-09-23T11:04:13.103Z,18.93
2018-09-23T11:06:42.216Z,26.30
2018-09-23T11:09:11.259Z,28.47
2018-09-23T11:11:40.248Z,25.93
2018-09-23T11:14:09.371Z,26.30
2018-09-23T11:16:38.346Z,19.30
2018-09-23T11:19:07.296Z,19.60
2018-09-23T11:21:36.218Z,18.30
2018-09-23T11:24:05.487Z,20.30
2018-09-23T11:26:34.605Z,29.03
2018-09-23T11:29:03.619Z,28.03
2018-09-23T11:31:32.523Z,22.73
2018-09-23T11:34:01.572Z,27.57
2018-09-23T11:36:30.639Z,25.13
2018-09-23T11:38:59.686Z,38.50
2018-09-23T11:41:28.897Z,29.03
2018-09-23T11:43:58.027Z,21.63
2018-09-23T11:46:26.972Z,39.23
2018-09-23T11:48:55.984Z,29.43
2018-09-23T11:51:24.817Z,35.83
2018-09-23T11:53:53.884Z,23.87
2018-09-23T11:56:22.900Z,34.87
2018-09-23T11:58:53.054Z,29.13
2018-09-23T12:01:22.121Z,24.97
2018-09-23T12:03:51.137Z,38.60
2018-09-23T12:06:19.997Z,39.03
2018-09-23T12:08:51.009Z,38.47
2018-09-23T12:11:20.108Z,33.30
2018-09-23T12:13:49.237Z,27.87
2018-09-23T12:16:18.390Z,40.33
2018-09-23T12:18:48.437Z,35.63
2018-09-23T12:21:17.466Z,50.50
2018-09-23T12:23:46.669Z,49.30
2018-09-23T12:26:15.677Z,41.50
2018-09-23T12:28:44.656Z,42.33
2018-09-23T12:31:13.578Z,46.03
2018-09-23T12:33:42.546Z,42.03
2018-09-23T12:36:11.435Z,44.23
2018-09-23T12:38:41.403Z,53.57
2018-09-23T12:41:10.265Z,53.20
2018-09-23T12:43:39.275Z,52.90
2018-09-23T12:46:08.288Z,47.87
2018-09-23T12:48:37.306Z,40.03
2018-09-23T12:51:06.285Z,39.87
2018-09-23T12:53:35.325Z,46.50
2018-09-23T12:56:04.361Z,45.23
2018-09-23T12:58:34.343Z,31.63
2018-09-23T13:01:03.249Z,52.10
2018-09-23T13:03:32.189Z,55.07
2018-09-23T13:06:02.036Z,40.80
2018-09-23T13:08:32.118Z,42.43
2018-09-23T13:11:01.121Z,52.90
2018-09-23T13:13:30.179Z,58.10
2018-09-23T13:15:59.267Z,38.53
2018-09-23T13:18:28.336Z,57.77
2018-09-23T13:20:57.286Z,34.23
2018-09-23T13:23:26.267Z,54.40
2018-09-23T13:25:55.281Z,54.70
2018-09-23T13:28:25.244Z,40.30
2018-09-23T13:30:54.100Z,41.00
2018-09-23T13:33:23.197Z,32.10
2018-09-23T13:35:52.151Z,36.50
2018-09-23T13:38:22.296Z,36.77
2018-09-23T13:40:51.217Z,28.33
2018-09-23T13:43:20.255Z,38.43
2018-09-23T13:45:49.640Z,29.03
2018-09-23T13:48:19.617Z,41.50
2018-09-23T13:50:48.570Z,19.87
2018-09-23T13:53:17.610Z,21.10
2018-09-23T13:55:46.532Z,22.33
2018-09-23T13:58:15.576Z,27.43
2018-09-23T14:00:44.505Z,14.10
2018-09-23T14:03:13.481Z,13.53
2018-09-23T14:05:42.527Z,20.13
2018-09-23T14:08:13.117Z,19.77
2018-09-23T14:10:42.168Z,15.50
2018-09-23T14:13:11.165Z,24.93
2018-09-23T14:15:40.201Z,18.43
2018-09-23T14:18:09.268Z,31.77
2018-09-23T14:20:40.427Z,16.57
2018-09-23T14:23:09.387Z,19.53
2018-09-23T14:25:38.499Z,14.60
2018-09-23T14:28:07.424Z,28.83
2018-09-23T14:30:36.393Z,15.87
2018-09-23T14:33:05.377Z,35.10
2018-09-23T14:35:34.294Z,35.27
2018-09-23T14:38:03.289Z,26.90
2018-09-23T14:40:32.314Z,33.90
2018-09-23T14:43:02.252Z,28.17
2018-09-23T14:45:31.336Z,27.33
2018-09-23T14:48:00.412Z,25.40
2018-09-23T14:50:29.392Z,18.20
2018-09-23T14:52:58.344Z,32.30
2018-09-23T14:55:27.327Z,20.90
2018-09-23T14:57:56.345Z,16.93
2018-09-23T15:00:25.624Z,14.33
2018-09-23T15:02:54.580Z,10.30
2018-09-23T15:05:23.452Z,9.23
2018-09-23T15:07:52.448Z,14.37
2018-09-23T15:10:21.517Z,9.03
2018-09-23T15:12:50.366Z,8.17
2018-09-23T15:15:19.412Z,11.33
2018-09-23T15:17:49.197Z,12.97
2018-09-23T15:20:18.207Z,8.90
2018-09-23T15:22:47.101Z,8.73
2018-09-23T15:25:15.977Z,5.10
2018-09-23T15:27:44.848Z,7.90
2018-09-23T15:30:13.792Z,11.03
2018-09-23T15:32:42.762Z,11.50
2018-09-23T15:35:11.812Z,7.70
2018-09-23T15:37:40.902Z,5.93
2018-09-23T15:40:09.871Z,8.70
2018-09-23T15:42:38.873Z,7.00
2018-09-23T15:45:07.736Z,7.30
2018-09-23T15:47:36.800Z,11.80
2018-09-23T15:50:06.826Z,8.60
2018-09-23T15:52:35.937Z,6.97
2018-09-23T15:55:04.972Z,7.70
2018-09-23T15:57:34.133Z,9.03
2018-09-23T16:00:04.339Z,8.30
2018-09-23T16:02:33.268Z,10.97
2018-09-23T16:05:02.242Z,12.33
2018-09-23T16:07:31.210Z,11.10
2018-09-23T16:10:01.324Z,13.87
2018-09-23T16:13:47.789Z,8.07
2018-09-23T16:16:16.770Z,9.33
2018-09-23T16:18:45.878Z,25.73
2018-09-23T16:21:14.696Z,7.33
2018-09-23T16:23:43.616Z,13.13
2018-09-23T16:26:12.529Z,11.03
2018-09-23T16:28:41.570Z,10.43
2018-09-23T16:31:12.664Z,11.50
2018-09-23T16:33:41.677Z,9.10
2018-09-23T16:36:10.617Z,14.83
2018-09-23T16:38:39.666Z,14.10
2018-09-23T16:41:08.681Z,15.90
2018-09-23T16:43:37.776Z,10.50
2018-09-23T16:46:06.838Z,16.17
2018-09-23T16:48:35.770Z,13.63
2018-09-23T16:51:04.985Z,13.67
2018-09-23T16:53:33.968Z,11.93
2018-09-23T16:56:02.766Z,12.27
2018-09-23T16:58:31.808Z,10.77
2018-09-23T17:01:01.805Z,8.17
2018-09-23T17:03:30.676Z,11.00
2018-09-23T17:05:59.643Z,14.00
2018-09-23T17:08:28.488Z,10.07
2018-09-23T17:10:58.528Z,11.67
2018-09-23T17:13:27.430Z,10.67
2018-09-23T17:15:56.270Z,11.77
2018-09-23T17:18:25.195Z,10.83
2018-09-23T17:20:54.325Z,9.97
2018-09-23T17:23:23.279Z,9.90
2018-09-23T17:25:52.196Z,14.13
2018-09-23T17:28:21.194Z,8.07
2018-09-23T17:30:50.194Z,11.67
2018-09-23T17:33:19.099Z,7.20
2018-09-23T17:35:47.974Z,7.63
2018-09-23T17:38:16.992Z,6.60
2018-09-23T17:40:45.921Z,20.53
2018-09-23T17:43:14.919Z,7.97
2018-09-23T17:45:43.891Z,6.97
2018-09-23T17:48:12.943Z,9.33
2018-09-23T17:50:41.970Z,12.00
2018-09-23T17:53:11.063Z,7.30
2018-09-23T17:55:40.068Z,9.43
2018-09-23T17:58:09.025Z,7.93
2018-09-23T18:00:41.909Z,7.60
2018-09-23T18:03:11.453Z,7.33
2018-09-23T18:05:40.370Z,7.60
2018-09-23T18:08:09.270Z,5.67
2018-09-23T18:10:38.277Z,10.10
2018-09-23T18:13:07.333Z,8.80
2018-09-23T18:15:36.302Z,6.70
2018-09-23T18:18:05.493Z,8.63
2018-09-23T18:20:34.540Z,7.53
2018-09-23T18:23:03.420Z,7.43
2018-09-23T18:25:32.331Z,10.63
2018-09-23T18:28:01.301Z,6.93
2018-09-23T18:30:31.446Z,6.43
2018-09-23T18:33:00.433Z,13.73
2018-09-23T18:35:29.309Z,6.13
2018-09-23T18:37:58.194Z,13.73
2018-09-23T18:40:27.249Z,3.63
2018-09-23T18:42:56.160Z,26.03
2018-09-23T18:45:25.231Z,5.67
2018-09-23T18:47:54.209Z,4.37
2018-09-23T18:50:23.165Z,7.03
2018-09-23T18:52:57.082Z,5.47
2018-09-23T18:55:31.274Z,6.53
2018-09-23T18:58:00.749Z,8.07
2018-09-23T19:00:29.865Z,4.20
2018-09-23T19:02:58.877Z,6.07
2018-09-23T19:05:27.911Z,4.77
2018-09-23T19:07:56.849Z,7.40
2018-09-23T19:10:28.316Z,4.43
2018-09-23T19:13:02.442Z,8.97
2018-09-23T19:15:32.241Z,4.50
2018-09-23T19:18:01.268Z,4.77
2018-09-23T19:20:31.335Z,4.80
2018-09-23T19:23:05.473Z,4.37
2018-09-23T19:25:34.561Z,8.43
2018-09-23T19:28:03.673Z,7.10
2018-09-23T19:30:33.846Z,5.23
2018-09-23T19:33:02.825Z,6.17
2018-09-23T19:35:31.805Z,5.60
2018-09-23T19:38:00.833Z,9.10
2018-09-23T19:40:30.132Z,5.87
2018-09-23T19:42:59.071Z,16.63
2018-09-23T19:45:28.314Z,6.77
2018-09-23T19:47:57.429Z,6.40
2018-09-23T19:50:27.568Z,6.23
2018-09-23T19:52:56.573Z,5.37
2018-09-23T19:55:25.559Z,12.67
2018-09-23T19:57:54.469Z,8.63
2018-09-23T20:00:24.673Z,4.80
2018-09-23T20:02:53.569Z,18.97
2018-09-23T20:05:22.489Z,5.43
2018-09-23T20:07:51.670Z,9.77
2018-09-23T20:10:21.828Z,6.47
2018-09-23T20:12:50.724Z,6.03
2018-09-23T20:15:19.785Z,9.10
2018-09-23T20:17:48.950Z,5.33
2018-09-23T20:20:18.869Z,5.60
2018-09-23T20:22:47.809Z,5.10
2018-09-23T20:25:16.835Z,18.37
2018-09-23T20:27:45.660Z,6.23
2018-09-23T20:30:16.696Z,4.83
2018-09-23T20:32:45.577Z,5.67
2018-09-23T20:35:14.688Z,5.20
2018-09-23T20:37:43.568Z,9.20
2018-09-23T20:40:13.694Z,5.13
2018-09-23T20:42:42.563Z,5.60
2018-09-23T20:45:11.596Z,7.13
2018-09-23T20:47:40.536Z,4.40
2018-09-23T20:50:09.528Z,10.33
2018-09-23T20:52:38.484Z,8.70
2018-09-23T20:55:07.668Z,6.03
2018-09-23T20:57:36.535Z,4.17
2018-09-23T21:00:05.621Z,6.80
2018-09-23T21:02:34.561Z,10.43
2018-09-23T21:05:03.526Z,11.00
2018-09-23T21:07:32.428Z,4.87
2018-09-23T21:10:01.469Z,4.87
2018-09-23T21:12:30.417Z,38.60
2018-09-23T21:14:59.463Z,6.33
2018-09-23T21:17:28.332Z,3.80
2018-09-23T21:19:57.344Z,3.20
2018-09-23T21:22:27.288Z,8.27
2018-09-23T21:24:56.241Z,8.80
2018-09-23T21:27:25.282Z,4.63
2018-09-23T21:29:54.233Z,5.43
2018-09-23T21:32:23.178Z,4.70
2018-09-23T21:34:52.159Z,11.83
2018-09-23T21:37:21.181Z,3.43
2018-09-23T21:39:50.073Z,3.40
2018-09-23T21:42:18.929Z,20.67
2018-09-23T21:44:47.980Z,5.73
2018-09-23T21:47:16.888Z,3.00
2018-09-23T21:49:45.840Z,5.27
2018-09-23T21:52:14.722Z,4.93
2018-09-23T21:54:43.854Z,7.57
2018-09-23T21:57:12.820Z,3.57
2018-09-23T21:59:41.833Z,4.23
2018-09-23T22:02:11.715Z,7.23
2018-09-23T22:04:40.560Z,4.70
2018-09-23T22:07:09.410Z,5.60
2018-09-23T22:09:38.270Z,7.30
2018-09-23T22:12:07.368Z,4.20
2018-09-23T22:14:36.496Z,16.03
2018-09-23T22:17:05.419Z,7.67
2018-09-23T22:19:34.446Z,11.90
2018-09-23T22:22:03.548Z,4.97
2018-09-23T22:24:32.370Z,12.80
2018-09-23T22:27:01.321Z,8.50
2018-09-23T22:29:30.277Z,4.67
2018-09-23T22:31:59.293Z,11.63
2018-09-23T22:34:28.080Z,4.60
2018-09-23T22:36:57.003Z,23.47
2018-09-23T22:39:25.884Z,4.60
2018-09-23T22:41:56.824Z,3.30
2018-09-23T22:44:25.703Z,26.27
2018-09-23T22:46:54.672Z,4.70
2018-09-23T22:49:23.648Z,3.30
2018-09-23T22:51:53.493Z,2.40
2018-09-23T22:54:22.493Z,3.40
2018-09-23T22:56:51.550Z,4.57
2018-09-23T22:59:20.442Z,23.17
2018-09-23T23:01:49.391Z,6.83
2018-09-23T23:04:18.297Z,3.23
2018-09-23T23:06:47.162Z,2.73
2018-09-23T23:09:16.152Z,9.53
2018-09-23T23:11:45.060Z,4.10
2018-09-23T23:14:13.876Z,3.43
2018-09-23T23:16:42.729Z,12.00
2018-09-23T23:19:11.649Z,4.40
2018-09-23T23:21:41.785Z,12.27
2018-09-23T23:24:10.718Z,4.03
2018-09-23T23:26:39.671Z,3.27
2018-09-23T23:29:08.637Z,19.27
2018-09-23T23:31:37.584Z,2.50
2018-09-23T23:34:06.403Z,3.90
2018-09-23T23:36:35.308Z,3.03
2018-09-23T23:39:05.472Z,4.80
2018-09-23T23:41:34.419Z,6.97
2018-09-23T23:44:03.361Z,6.13
2018-09-23T23:46:32.259Z,3.33
2018-09-23T23:49:01.182Z,6.97
2018-09-23T23:51:32.215Z,6.33
2018-09-23T23:54:01.117Z,8.17
2018-09-23T23:56:30.078Z,10.27
2018-09-23T23:58:58.926Z,9.93
